Rejestracja

Wszystkie dane podawane są w czasie UTC za wyjątkiem miejsc gdzie jest jednoznacznie podane, że jest inaczej. Dane podawane w serwisie mają charakter informacyjny!!!
Informacje w sprawie dostępu do serwisu pod numerem tel. +48 261-828-138
Informacja dla żołnierzy i pracowników wojska: Prosimy o niezwłoczną zmianę adresu e-mail w profilu użytkownika na pocztę w domenie @ron.mil.pl

Aktualna Pogoda
 
Pogoda w Polsce
10°C Szczecin 8°C Suwałki 10°C Warszawa 10°C Poznan
9°C Opole 8°C Kraków 9°C Rzeszów
Więcej miast w Polsce

Pogoda w Europie
11°C Berlin 11°C Paryz 13°C Bruksela 11°C Oslo
9°C Praga 14°C Zagrzeb
Więcej miast w Europie

Metary wojskowe test
SPECI EPCE 250213Z 26006KT 5000 -DZ OVC007 09/09 Q1020 RMK 092 096 8/8=
METAR EPDA 250200Z 28010KT 230V310 9999 -RA OVC015 10/09 Q1020 RMK 104 092 8/8=
METAR EPDE 250200Z 24004KT 9999 SCT060 BKN090 10/08 Q1022 RMK 095 089 7/4=
METAR EPIR 250200Z 24006KT 9999 BKN060 09/08 Q1021 RMK 090 091 7/7=
METAR EPKS 250200Z 28007KT 9999 -RA OVC006 10/10 Q1022 RMK 095 100 8/8=
METAR EPLK 250200Z 27005KT 9999 BKN008 BKN034 08/08 Q1022 RMK 078 100 7/5=
METAR EPLY 250200Z AUTO 26002KT 08/07 Q1022 RMK 080 096 ///=
METAR EPMB 250200Z 24006KT 9999 -SHRA SCT025CB OVC038 10/09 Q1020 RMK 096 095 8/4=
METAR EPMI 250200Z 27006KT 6000 -SHRA BKN005 BKN011CB BKN040 09/09 Q1021 RMK 090 099 7/5=
METAR EPMM 250200Z 27003KT 9999 BKN049 07/07 Q1021 RMK 069 100 7/7=
METAR EPOK 250200Z 29003KT 9000 -RADZ OVC010 10/09 Q1019 RMK 097 098 8/8=
METAR EPPR 250200Z AUTO 23002KT VV020 10/08 Q1020 RMK 101 089 ///=
METAR EPPW 250200Z 26006KT 6000 -RA SCT026 OVC040 09/09 Q1022 RERA RMK 087 100 8/3=
METAR EPSN 250200Z 27008KT 5000 SHRA SCT006 BKN014CB OVC017 09/09 Q1021 RMK 094 100 8/4=
METAR EPTM 250200Z AUTO 22002KT VV158 08/06 Q1022 RMK 075 093 ///=


 

Prawa autorskie©2007 SSH SZ RP. Wszelkie prawa zastrzeżone.